sensor_id;sensor_type;location;lat;lon;timestamp;pressure;altitude;pressure_sealevel;temperature;humidity
50166;BME280;36071;48.140;11.516;2023-07-09T00:04:39;95950.0;;;22.9;52.2
50166;BME280;36071;48.140;11.516;2023-07-09T00:09:39;95950.0;;;22.8;52.0
50166;BME280;36071;48.140;11.516;2023-07-09T00:14:39;95960.0;;;22.7;52.3
50166;BME280;36071;48.140;11.516;2023-07-09T00:19:40;95960.0;;;22.6;52.7
50166;BME280;36071;48.140;11.516;2023-07-09T00:24:39;95960.0;;;22.5;53.2
50166;BME280;36071;48.140;11.516;2023-07-09T00:29:39;95970.0;;;22.5;53.5
50166;BME280;36071;48.140;11.516;2023-07-09T00:34:39;95970.0;;;22.4;53.9
50166;BME280;36071;48.140;11.516;2023-07-09T00:39:39;95970.0;;;22.4;54.3
50166;BME280;36071;48.140;11.516;2023-07-09T00:44:39;95980.0;;;22.3;54.4
50166;BME280;36071;48.140;11.516;2023-07-09T00:49:39;95980.0;;;22.3;54.6
50166;BME280;36071;48.140;11.516;2023-07-09T00:54:40;95980.0;;;22.2;55.0
50166;BME280;36071;48.140;11.516;2023-07-09T00:59:39;95980.0;;;22.1;55.3
50166;BME280;36071;48.140;11.516;2023-07-09T01:04:39;95980.0;;;22.1;55.6
50166;BME280;36071;48.140;11.516;2023-07-09T01:09:39;95980.0;;;22.0;56.0
50166;BME280;36071;48.140;11.516;2023-07-09T01:14:39;95980.0;;;21.9;56.3
50166;BME280;36071;48.140;11.516;2023-07-09T01:19:40;95980.0;;;21.8;56.8
50166;BME280;36071;48.140;11.516;2023-07-09T01:24:49;95990.0;;;21.8;56.9
50166;BME280;36071;48.140;11.516;2023-07-09T01:29:39;95990.0;;;21.8;56.8
50166;BME280;36071;48.140;11.516;2023-07-09T01:34:39;95990.0;;;21.8;57.1
50166;BME280;36071;48.140;11.516;2023-07-09T01:39:39;96000.0;;;21.8;57.0
50166;BME280;36071;48.140;11.516;2023-07-09T01:44:39;95990.0;;;21.8;57.2
50166;BME280;36071;48.140;11.516;2023-07-09T01:49:39;95990.0;;;21.8;57.1
50166;BME280;36071;48.140;11.516;2023-07-09T01:54:39;96000.0;;;21.7;57.4
50166;BME280;36071;48.140;11.516;2023-07-09T01:59:39;96000.0;;;21.7;57.5
50166;BME280;36071;48.140;11.516;2023-07-09T02:04:39;96010.0;;;21.6;58.0
50166;BME280;36071;48.140;11.516;2023-07-09T02:09:39;96000.0;;;21.6;58.1
50166;BME280;36071;48.140;11.516;2023-07-09T02:14:39;96000.0;;;21.5;58.5
50166;BME280;36071;48.140;11.516;2023-07-09T02:24:39;96000.0;;;21.5;58.7
50166;BME280;36071;48.140;11.516;2023-07-09T02:29:39;95990.0;;;21.5;58.5
50166;BME280;36071;48.140;11.516;2023-07-09T02:34:39;96010.0;;;21.5;58.9
50166;BME280;36071;48.140;11.516;2023-07-09T02:39:39;96000.0;;;21.4;59.2
50166;BME280;36071;48.140;11.516;2023-07-09T02:44:39;96000.0;;;21.4;59.0
50166;BME280;36071;48.140;11.516;2023-07-09T02:49:39;96010.0;;;21.3;59.4
50166;BME280;36071;48.140;11.516;2023-07-09T02:54:39;96010.0;;;21.3;59.7
50166;BME280;36071;48.140;11.516;2023-07-09T02:59:40;96010.0;;;21.3;59.8
50166;BME280;36071;48.140;11.516;2023-07-09T03:04:39;96020.0;;;21.2;59.8
50166;BME280;36071;48.140;11.516;2023-07-09T03:14:39;96020.0;;;21.2;60.1
50166;BME280;36071;48.140;11.516;2023-07-09T03:19:39;96030.0;;;21.2;60.2
50166;BME280;36071;48.140;11.516;2023-07-09T03:24:39;96020.0;;;21.1;60.4
50166;BME280;36071;48.140;11.516;2023-07-09T03:29:39;96020.0;;;21.0;60.8
50166;BME280;36071;48.140;11.516;2023-07-09T03:34:39;96030.0;;;21.0;60.8
50166;BME280;36071;48.140;11.516;2023-07-09T03:39:39;96040.0;;;20.9;61.1
50166;BME280;36071;48.140;11.516;2023-07-09T03:44:39;96040.0;;;20.8;61.1
50166;BME280;36071;48.140;11.516;2023-07-09T03:49:39;96030.0;;;20.8;61.3
50166;BME280;36071;48.140;11.516;2023-07-09T03:54:39;96040.0;;;20.8;61.4
50166;BME280;36071;48.140;11.516;2023-07-09T04:04:39;96040.0;;;20.7;61.3
50166;BME280;36071;48.140;11.516;2023-07-09T04:09:39;96040.0;;;20.7;61.1
50166;BME280;36071;48.140;11.516;2023-07-09T04:14:39;96040.0;;;20.7;61.4
50166;BME280;36071;48.140;11.516;2023-07-09T04:19:39;96050.0;;;20.8;61.3
50166;BME280;36071;48.140;11.516;2023-07-09T04:24:39;96050.0;;;20.8;61.2
50166;BME280;36071;48.140;11.516;2023-07-09T04:29:39;96050.0;;;20.8;61.3
50166;BME280;36071;48.140;11.516;2023-07-09T04:34:39;96050.0;;;20.8;61.2
50166;BME280;36071;48.140;11.516;2023-07-09T04:39:39;96050.0;;;20.8;60.9
50166;BME280;36071;48.140;11.516;2023-07-09T04:44:39;96060.0;;;20.8;60.4
50166;BME280;36071;48.140;11.516;2023-07-09T04:49:39;96060.0;;;20.9;60.3
50166;BME280;36071;48.140;11.516;2023-07-09T04:54:39;96070.0;;;20.9;60.0
50166;BME280;36071;48.140;11.516;2023-07-09T04:59:39;96060.0;;;20.9;60.1
50166;BME280;36071;48.140;11.516;2023-07-09T05:04:39;96050.0;;;20.9;59.9
50166;BME280;36071;48.140;11.516;2023-07-09T05:09:39;96060.0;;;21.0;59.8
50166;BME280;36071;48.140;11.516;2023-07-09T05:14:39;96060.0;;;21.0;59.7
50166;BME280;36071;48.140;11.516;2023-07-09T05:19:39;96060.0;;;21.1;59.2
50166;BME280;36071;48.140;11.516;2023-07-09T05:24:39;96070.0;;;21.2;59.2
50166;BME280;36071;48.140;11.516;2023-07-09T05:29:39;96070.0;;;21.3;59.0
50166;BME280;36071;48.140;11.516;2023-07-09T05:34:39;96070.0;;;21.4;58.7
50166;BME280;36071;48.140;11.516;2023-07-09T05:39:39;96070.0;;;21.5;58.5
50166;BME280;36071;48.140;11.516;2023-07-09T05:44:39;96090.0;;;21.6;58.1
50166;BME280;36071;48.140;11.516;2023-07-09T05:49:39;96090.0;;;21.8;57.8
50166;BME280;36071;48.140;11.516;2023-07-09T05:54:39;96090.0;;;21.9;57.3
50166;BME280;36071;48.140;11.516;2023-07-09T05:59:39;96100.0;;;22.0;56.9
50166;BME280;36071;48.140;11.516;2023-07-09T06:04:39;96090.0;;;22.1;56.6
50166;BME280;36071;48.140;11.516;2023-07-09T06:09:39;96090.0;;;22.2;56.5
50166;BME280;36071;48.140;11.516;2023-07-09T06:14:39;96090.0;;;22.3;56.3
50166;BME280;36071;48.140;11.516;2023-07-09T06:19:39;96100.0;;;22.4;55.2
50166;BME280;36071;48.140;11.516;2023-07-09T06:24:39;96100.0;;;22.6;55.0
50166;BME280;36071;48.140;11.516;2023-07-09T06:29:39;96100.0;;;22.8;54.1
50166;BME280;36071;48.140;11.516;2023-07-09T06:34:39;96100.0;;;22.9;54.0
50166;BME280;36071;48.140;11.516;2023-07-09T06:39:39;96100.0;;;23.0;54.1
50166;BME280;36071;48.140;11.516;2023-07-09T06:44:39;96100.0;;;23.1;53.1
50166;BME280;36071;48.140;11.516;2023-07-09T06:49:39;96090.0;;;23.2;52.5
50166;BME280;36071;48.140;11.516;2023-07-09T06:54:39;96090.0;;;23.3;52.5
50166;BME280;36071;48.140;11.516;2023-07-09T06:59:39;96090.0;;;23.4;51.4
50166;BME280;36071;48.140;11.516;2023-07-09T07:04:39;96090.0;;;23.5;49.9
50166;BME280;36071;48.140;11.516;2023-07-09T07:09:39;96090.0;;;23.6;49.3
50166;BME280;36071;48.140;11.516;2023-07-09T07:14:39;96100.0;;;23.7;49.2
50166;BME280;36071;48.140;11.516;2023-07-09T07:19:39;96090.0;;;23.8;49.7
50166;BME280;36071;48.140;11.516;2023-07-09T07:24:39;96100.0;;;23.9;48.6
50166;BME280;36071;48.140;11.516;2023-07-09T07:29:39;96090.0;;;24.0;47.8
50166;BME280;36071;48.140;11.516;2023-07-09T07:34:39;96080.0;;;24.1;48.4
50166;BME280;36071;48.140;11.516;2023-07-09T07:39:39;96080.0;;;24.3;48.4
50166;BME280;36071;48.140;11.516;2023-07-09T07:44:39;96070.0;;;24.4;47.4
50166;BME280;36071;48.140;11.516;2023-07-09T07:49:39;96080.0;;;24.5;46.8
50166;BME280;36071;48.140;11.516;2023-07-09T07:54:39;96070.0;;;24.5;47.3
50166;BME280;36071;48.140;11.516;2023-07-09T07:59:39;96070.0;;;24.6;47.2
50166;BME280;36071;48.140;11.516;2023-07-09T08:04:39;96070.0;;;24.8;46.1
50166;BME280;36071;48.140;11.516;2023-07-09T08:09:39;96070.0;;;25.0;46.0
50166;BME280;36071;48.140;11.516;2023-07-09T08:14:47;96060.0;;;25.1;45.6
50166;BME280;36071;48.140;11.516;2023-07-09T08:19:47;96070.0;;;25.2;45.4
50166;BME280;36071;48.140;11.516;2023-07-09T08:24:39;96070.0;;;25.7;43.8
50166;BME280;36071;48.140;11.516;2023-07-09T08:29:39;96060.0;;;26.0;42.7
50166;BME280;36071;48.140;11.516;2023-07-09T08:34:39;96050.0;;;26.6;41.3
50166;BME280;36071;48.140;11.516;2023-07-09T08:39:39;96060.0;;;27.4;39.3
50166;BME280;36071;48.140;11.516;2023-07-09T08:44:44;96050.0;;;27.9;38.3
50166;BME280;36071;48.140;11.516;2023-07-09T08:49:41;96060.0;;;28.5;37.7
50166;BME280;36071;48.140;11.516;2023-07-09T08:54:39;96050.0;;;29.0;35.4
50166;BME280;36071;48.140;11.516;2023-07-09T08:59:39;96050.0;;;29.4;33.8
50166;BME280;36071;48.140;11.516;2023-07-09T09:04:39;96050.0;;;29.9;33.2
50166;BME280;36071;48.140;11.516;2023-07-09T09:09:40;96040.0;;;30.2;32.7
50166;BME280;36071;48.140;11.516;2023-07-09T09:14:40;96050.0;;;30.6;33.2
50166;BME280;36071;48.140;11.516;2023-07-09T09:19:42;96040.0;;;30.8;30.2
50166;BME280;36071;48.140;11.516;2023-07-09T09:24:41;96050.0;;;31.1;29.3
50166;BME280;36071;48.140;11.516;2023-07-09T09:29:39;96040.0;;;31.4;30.0
50166;BME280;36071;48.140;11.516;2023-07-09T09:34:39;96040.0;;;31.7;29.2
50166;BME280;36071;48.140;11.516;2023-07-09T09:39:39;96040.0;;;31.7;29.6
50166;BME280;36071;48.140;11.516;2023-07-09T09:44:42;96050.0;;;32.0;28.8
50166;BME280;36071;48.140;11.516;2023-07-09T09:49:39;96040.0;;;32.6;29.7
50166;BME280;36071;48.140;11.516;2023-07-09T09:54:40;96040.0;;;32.9;28.0
50166;BME280;36071;48.140;11.516;2023-07-09T09:59:39;96040.0;;;33.2;28.2
50166;BME280;36071;48.140;11.516;2023-07-09T10:04:39;96040.0;;;33.4;27.6
50166;BME280;36071;48.140;11.516;2023-07-09T10:09:42;96030.0;;;33.5;27.5
50166;BME280;36071;48.140;11.516;2023-07-09T10:14:41;96030.0;;;33.5;26.6
50166;BME280;36071;48.140;11.516;2023-07-09T10:19:42;96030.0;;;33.7;26.8
50166;BME280;36071;48.140;11.516;2023-07-09T10:24:43;96040.0;;;34.0;26.6
50166;BME280;36071;48.140;11.516;2023-07-09T10:29:44;96030.0;;;33.9;26.0
50166;BME280;36071;48.140;11.516;2023-07-09T10:34:41;96040.0;;;34.4;27.1
50166;BME280;36071;48.140;11.516;2023-07-09T10:39:40;96030.0;;;34.5;25.6
50166;BME280;36071;48.140;11.516;2023-07-09T10:44:40;96030.0;;;34.7;25.5
50166;BME280;36071;48.140;11.516;2023-07-09T10:49:40;96030.0;;;35.0;27.1
50166;BME280;36071;48.140;11.516;2023-07-09T10:54:41;96020.0;;;35.0;24.1
50166;BME280;36071;48.140;11.516;2023-07-09T10:59:40;96020.0;;;35.2;24.4
50166;BME280;36071;48.140;11.516;2023-07-09T11:04:40;96010.0;;;35.2;23.8
50166;BME280;36071;48.140;11.516;2023-07-09T11:09:41;96020.0;;;35.6;24.2
50166;BME280;36071;48.140;11.516;2023-07-09T11:14:39;96010.0;;;35.8;23.6
50166;BME280;36071;48.140;11.516;2023-07-09T11:19:41;96010.0;;;35.9;23.8
50166;BME280;36071;48.140;11.516;2023-07-09T11:24:44;96010.0;;;35.7;23.8
50166;BME280;36071;48.140;11.516;2023-07-09T11:29:44;96000.0;;;35.8;23.7
50166;BME280;36071;48.140;11.516;2023-07-09T11:34:44;96000.0;;;35.7;23.7
50166;BME280;36071;48.140;11.516;2023-07-09T11:39:43;96000.0;;;35.2;24.4
50166;BME280;36071;48.140;11.516;2023-07-09T11:44:45;96000.0;;;35.3;23.2
50166;BME280;36071;48.140;11.516;2023-07-09T11:49:42;95980.0;;;35.4;21.5
50166;BME280;36071;48.140;11.516;2023-07-09T11:54:40;95980.0;;;35.6;22.9
50166;BME280;36071;48.140;11.516;2023-07-09T11:59:40;95980.0;;;35.7;23.2
50166;BME280;36071;48.140;11.516;2023-07-09T12:04:39;95970.0;;;35.8;23.1
50166;BME280;36071;48.140;11.516;2023-07-09T12:09:41;95960.0;;;35.9;22.3
50166;BME280;36071;48.140;11.516;2023-07-09T12:14:39;95960.0;;;35.8;22.3
50166;BME280;36071;48.140;11.516;2023-07-09T12:19:39;95950.0;;;35.4;23.7
50166;BME280;36071;48.140;11.516;2023-07-09T12:24:40;95950.0;;;35.3;24.7
50166;BME280;36071;48.140;11.516;2023-07-09T12:29:39;95950.0;;;35.2;23.8
50166;BME280;36071;48.140;11.516;2023-07-09T12:34:41;95950.0;;;35.3;23.8
50166;BME280;36071;48.140;11.516;2023-07-09T12:39:39;95940.0;;;35.3;22.9
50166;BME280;36071;48.140;11.516;2023-07-09T12:44:39;95930.0;;;35.4;23.6
50166;BME280;36071;48.140;11.516;2023-07-09T12:49:40;95920.0;;;35.5;23.9
50166;BME280;36071;48.140;11.516;2023-07-09T12:54:39;95930.0;;;35.6;25.1
50166;BME280;36071;48.140;11.516;2023-07-09T12:59:39;95930.0;;;35.3;24.3
50166;BME280;36071;48.140;11.516;2023-07-09T13:04:39;95920.0;;;35.4;24.3
50166;BME280;36071;48.140;11.516;2023-07-09T13:09:47;95920.0;;;35.5;24.5
50166;BME280;36071;48.140;11.516;2023-07-09T13:14:39;95920.0;;;35.5;23.6
50166;BME280;36071;48.140;11.516;2023-07-09T13:19:39;95920.0;;;35.6;25.3
50166;BME280;36071;48.140;11.516;2023-07-09T13:24:39;95910.0;;;35.1;23.0
50166;BME280;36071;48.140;11.516;2023-07-09T13:29:39;95910.0;;;35.0;24.7
50166;BME280;36071;48.140;11.516;2023-07-09T13:34:39;95910.0;;;35.1;24.1
50166;BME280;36071;48.140;11.516;2023-07-09T13:39:39;95910.0;;;35.0;24.1
50166;BME280;36071;48.140;11.516;2023-07-09T13:44:40;95910.0;;;35.1;24.6
50166;BME280;36071;48.140;11.516;2023-07-09T13:49:39;95910.0;;;34.9;23.1
50166;BME280;36071;48.140;11.516;2023-07-09T13:54:39;95910.0;;;34.9;22.9
50166;BME280;36071;48.140;11.516;2023-07-09T13:59:40;95910.0;;;35.0;25.2
50166;BME280;36071;48.140;11.516;2023-07-09T14:04:39;95910.0;;;35.2;25.1
50166;BME280;36071;48.140;11.516;2023-07-09T14:09:39;95900.0;;;35.2;24.3
50166;BME280;36071;48.140;11.516;2023-07-09T14:14:39;95900.0;;;35.3;24.7
50166;BME280;36071;48.140;11.516;2023-07-09T14:19:40;95900.0;;;35.4;24.9
50166;BME280;36071;48.140;11.516;2023-07-09T14:24:39;95890.0;;;35.4;24.6
50166;BME280;36071;48.140;11.516;2023-07-09T14:29:39;95880.0;;;35.3;23.9
50166;BME280;36071;48.140;11.516;2023-07-09T14:34:39;95880.0;;;35.3;24.8
50166;BME280;36071;48.140;11.516;2023-07-09T14:39:39;95880.0;;;35.2;25.0
50166;BME280;36071;48.140;11.516;2023-07-09T14:44:39;95870.0;;;35.1;24.2
50166;BME280;36071;48.140;11.516;2023-07-09T14:49:39;95870.0;;;35.1;25.0
50166;BME280;36071;48.140;11.516;2023-07-09T14:54:39;95860.0;;;35.1;24.5
50166;BME280;36071;48.140;11.516;2023-07-09T14:59:40;95860.0;;;34.9;23.4
50166;BME280;36071;48.140;11.516;2023-07-09T15:04:39;95860.0;;;34.8;23.8
50166;BME280;36071;48.140;11.516;2023-07-09T15:09:39;95860.0;;;34.6;23.5
50166;BME280;36071;48.140;11.516;2023-07-09T15:14:39;95860.0;;;34.5;24.0
50166;BME280;36071;48.140;11.516;2023-07-09T15:19:39;95860.0;;;34.3;24.2
50166;BME280;36071;48.140;11.516;2023-07-09T15:24:39;95850.0;;;34.2;25.6
50166;BME280;36071;48.140;11.516;2023-07-09T15:29:39;95840.0;;;34.0;25.1
50166;BME280;36071;48.140;11.516;2023-07-09T15:34:40;95840.0;;;34.0;24.7
50166;BME280;36071;48.140;11.516;2023-07-09T15:39:39;95840.0;;;33.8;24.9
50166;BME280;36071;48.140;11.516;2023-07-09T15:44:39;95850.0;;;33.7;25.5
50166;BME280;36071;48.140;11.516;2023-07-09T15:49:39;95830.0;;;33.7;25.3
50166;BME280;36071;48.140;11.516;2023-07-09T15:54:40;95840.0;;;33.7;25.4
50166;BME280;36071;48.140;11.516;2023-07-09T15:59:39;95840.0;;;33.7;25.7
50166;BME280;36071;48.140;11.516;2023-07-09T16:04:41;95830.0;;;33.7;25.9
50166;BME280;36071;48.140;11.516;2023-07-09T16:09:39;95840.0;;;33.6;25.7
50166;BME280;36071;48.140;11.516;2023-07-09T16:14:39;95840.0;;;33.5;25.7
50166;BME280;36071;48.140;11.516;2023-07-09T16:19:39;95830.0;;;33.5;26.1
50166;BME280;36071;48.140;11.516;2023-07-09T16:29:39;95830.0;;;33.3;26.1
50166;BME280;36071;48.140;11.516;2023-07-09T16:39:40;95830.0;;;33.2;26.1
50166;BME280;36071;48.140;11.516;2023-07-09T16:44:41;95830.0;;;33.1;26.2
50166;BME280;36071;48.140;11.516;2023-07-09T16:49:40;95820.0;;;33.1;26.6
50166;BME280;36071;48.140;11.516;2023-07-09T16:54:39;95830.0;;;32.9;26.3
50166;BME280;36071;48.140;11.516;2023-07-09T16:59:39;95820.0;;;32.8;26.7
50166;BME280;36071;48.140;11.516;2023-07-09T17:04:39;95830.0;;;32.8;26.4
50166;BME280;36071;48.140;11.516;2023-07-09T17:09:39;95820.0;;;32.8;26.8
50166;BME280;36071;48.140;11.516;2023-07-09T17:14:39;95830.0;;;32.8;26.6
50166;BME280;36071;48.140;11.516;2023-07-09T17:19:39;95820.0;;;32.6;26.4
50166;BME280;36071;48.140;11.516;2023-07-09T17:24:39;95820.0;;;32.6;26.9
50166;BME280;36071;48.140;11.516;2023-07-09T17:29:40;95820.0;;;32.5;27.2
50166;BME280;36071;48.140;11.516;2023-07-09T17:34:39;95820.0;;;32.5;27.4
50166;BME280;36071;48.140;11.516;2023-07-09T17:39:39;95830.0;;;32.4;27.2
50166;BME280;36071;48.140;11.516;2023-07-09T17:44:39;95830.0;;;32.3;27.2
50166;BME280;36071;48.140;11.516;2023-07-09T17:49:39;95830.0;;;32.2;27.4
50166;BME280;36071;48.140;11.516;2023-07-09T17:54:39;95820.0;;;32.1;28.0
50166;BME280;36071;48.140;11.516;2023-07-09T17:59:39;95830.0;;;32.0;27.6
50166;BME280;36071;48.140;11.516;2023-07-09T18:04:39;95840.0;;;31.9;27.7
50166;BME280;36071;48.140;11.516;2023-07-09T18:09:39;95840.0;;;31.8;27.8
50166;BME280;36071;48.140;11.516;2023-07-09T18:14:41;95840.0;;;31.7;26.8
50166;BME280;36071;48.140;11.516;2023-07-09T18:19:39;95840.0;;;31.6;28.0
50166;BME280;36071;48.140;11.516;2023-07-09T18:24:39;95840.0;;;31.6;27.3
50166;BME280;36071;48.140;11.516;2023-07-09T18:29:39;95850.0;;;31.5;27.0
50166;BME280;36071;48.140;11.516;2023-07-09T18:34:39;95850.0;;;31.4;27.6
50166;BME280;36071;48.140;11.516;2023-07-09T18:39:40;95850.0;;;31.1;27.0
50166;BME280;36071;48.140;11.516;2023-07-09T18:44:39;95850.0;;;31.1;27.4
50166;BME280;36071;48.140;11.516;2023-07-09T18:49:39;95830.0;;;31.0;27.8
50166;BME280;36071;48.140;11.516;2023-07-09T18:54:39;95840.0;;;30.7;27.9
50166;BME280;36071;48.140;11.516;2023-07-09T18:59:39;95850.0;;;30.6;28.2
50166;BME280;36071;48.140;11.516;2023-07-09T19:04:39;95840.0;;;30.6;35.3
50166;BME280;36071;48.140;11.516;2023-07-09T19:09:39;95840.0;;;30.4;30.1
50166;BME280;36071;48.140;11.516;2023-07-09T19:14:40;95850.0;;;30.2;33.4
50166;BME280;36071;48.140;11.516;2023-07-09T19:19:39;95840.0;;;30.0;34.6
50166;BME280;36071;48.140;11.516;2023-07-09T19:24:39;95850.0;;;29.9;32.1
50166;BME280;36071;48.140;11.516;2023-07-09T19:29:40;95850.0;;;29.8;34.3
50166;BME280;36071;48.140;11.516;2023-07-09T19:34:41;95860.0;;;29.7;34.3
50166;BME280;36071;48.140;11.516;2023-07-09T19:39:39;95860.0;;;29.6;34.6
50166;BME280;36071;48.140;11.516;2023-07-09T19:44:39;95870.0;;;29.6;34.2
50166;BME280;36071;48.140;11.516;2023-07-09T19:49:39;95870.0;;;29.5;34.3
50166;BME280;36071;48.140;11.516;2023-07-09T19:54:39;95870.0;;;29.4;34.3
50166;BME280;36071;48.140;11.516;2023-07-09T19:59:39;95870.0;;;29.4;33.1
50166;BME280;36071;48.140;11.516;2023-07-09T20:04:39;95880.0;;;29.3;33.3
50166;BME280;36071;48.140;11.516;2023-07-09T20:09:39;95870.0;;;29.2;34.1
50166;BME280;36071;48.140;11.516;2023-07-09T20:14:39;95870.0;;;29.0;32.3
50166;BME280;36071;48.140;11.516;2023-07-09T20:19:40;95860.0;;;29.0;32.4
50166;BME280;36071;48.140;11.516;2023-07-09T20:24:39;95870.0;;;28.9;33.4
50166;BME280;36071;48.140;11.516;2023-07-09T20:29:39;95870.0;;;28.8;32.9
50166;BME280;36071;48.140;11.516;2023-07-09T20:34:39;95870.0;;;28.7;33.9
50166;BME280;36071;48.140;11.516;2023-07-09T20:39:39;95870.0;;;28.6;33.8
50166;BME280;36071;48.140;11.516;2023-07-09T20:44:40;95870.0;;;28.5;33.5
50166;BME280;36071;48.140;11.516;2023-07-09T20:49:39;95870.0;;;28.3;33.9
50166;BME280;36071;48.140;11.516;2023-07-09T20:54:39;95880.0;;;28.4;34.1
50166;BME280;36071;48.140;11.516;2023-07-09T20:59:45;95870.0;;;28.3;34.3
50166;BME280;36071;48.140;11.516;2023-07-09T21:04:44;95870.0;;;28.2;34.0
50166;BME280;36071;48.140;11.516;2023-07-09T21:09:39;95870.0;;;28.1;34.5
50166;BME280;36071;48.140;11.516;2023-07-09T21:14:39;95870.0;;;28.1;35.0
50166;BME280;36071;48.140;11.516;2023-07-09T21:19:40;95880.0;;;28.0;35.2
50166;BME280;36071;48.140;11.516;2023-07-09T21:24:40;95880.0;;;27.9;35.9
50166;BME280;36071;48.140;11.516;2023-07-09T21:29:39;95880.0;;;27.8;36.3
50166;BME280;36071;48.140;11.516;2023-07-09T21:34:39;95890.0;;;27.7;36.4
50166;BME280;36071;48.140;11.516;2023-07-09T21:39:39;95890.0;;;27.6;36.8
50166;BME280;36071;48.140;11.516;2023-07-09T21:44:39;95890.0;;;27.4;36.9
50166;BME280;36071;48.140;11.516;2023-07-09T21:49:40;95900.0;;;27.4;37.0
50166;BME280;36071;48.140;11.516;2023-07-09T21:54:39;95900.0;;;27.3;37.4
50166;BME280;36071;48.140;11.516;2023-07-09T21:59:39;95890.0;;;27.2;37.8
50166;BME280;36071;48.140;11.516;2023-07-09T22:04:39;95890.0;;;27.1;37.9
50166;BME280;36071;48.140;11.516;2023-07-09T22:09:40;95890.0;;;27.0;38.3
50166;BME280;36071;48.140;11.516;2023-07-09T22:14:39;95890.0;;;26.9;38.8
50166;BME280;36071;48.140;11.516;2023-07-09T22:19:41;95890.0;;;26.8;39.1
50166;BME280;36071;48.140;11.516;2023-07-09T22:24:39;95890.0;;;26.7;38.8
50166;BME280;36071;48.140;11.516;2023-07-09T22:29:40;95900.0;;;26.7;39.1
50166;BME280;36071;48.140;11.516;2023-07-09T22:34:39;95890.0;;;26.6;39.4
50166;BME280;36071;48.140;11.516;2023-07-09T22:39:39;95900.0;;;26.5;39.0
50166;BME280;36071;48.140;11.516;2023-07-09T22:44:39;95890.0;;;26.4;38.4
50166;BME280;36071;48.140;11.516;2023-07-09T22:49:39;95900.0;;;26.4;38.8
50166;BME280;36071;48.140;11.516;2023-07-09T22:54:39;95880.0;;;26.2;38.9
50166;BME280;36071;48.140;11.516;2023-07-09T22:59:39;95890.0;;;26.2;39.1
50166;BME280;36071;48.140;11.516;2023-07-09T23:04:39;95890.0;;;26.1;39.2
50166;BME280;36071;48.140;11.516;2023-07-09T23:09:39;95900.0;;;26.0;39.3
50166;BME280;36071;48.140;11.516;2023-07-09T23:14:39;95900.0;;;26.0;39.2
50166;BME280;36071;48.140;11.516;2023-07-09T23:19:39;95900.0;;;26.0;39.4
50166;BME280;36071;48.140;11.516;2023-07-09T23:24:39;95900.0;;;25.9;39.5
50166;BME280;36071;48.140;11.516;2023-07-09T23:29:39;95890.0;;;25.8;39.7
50166;BME280;36071;48.140;11.516;2023-07-09T23:34:40;95890.0;;;25.7;39.9
50166;BME280;36071;48.140;11.516;2023-07-09T23:39:39;95880.0;;;25.6;40.0
50166;BME280;36071;48.140;11.516;2023-07-09T23:44:39;95890.0;;;25.6;40.5
50166;BME280;36071;48.140;11.516;2023-07-09T23:49:39;95890.0;;;25.5;40.4
50166;BME280;36071;48.140;11.516;2023-07-09T23:54:39;95890.0;;;25.3;40.9
50166;BME280;36071;48.140;11.516;2023-07-09T23:59:39;95900.0;;;25.3;41.1
